sensor_id;sensor_type;location;lat;lon;timestamp;P1;durP1;ratioP1;P2;durP2;ratioP2
18738;SDS011;9498;51.862;19.460;2022-11-06T00:00:37;32.13;;;11.53;;
18738;SDS011;9498;51.862;19.460;2022-11-06T00:03:05;32.87;;;10.93;;
18738;SDS011;9498;51.862;19.460;2022-11-06T00:05:32;30.53;;;11.23;;
18738;SDS011;9498;51.862;19.460;2022-11-06T00:08:25;31.17;;;11.23;;
18738;SDS011;9498;51.862;19.460;2022-11-06T00:10:52;34.80;;;10.30;;
18738;SDS011;9498;51.862;19.460;2022-11-06T00:13:19;27.07;;;10.70;;
18738;SDS011;9498;51.862;19.460;2022-11-06T00:15:48;30.93;;;11.50;;
18738;SDS011;9498;51.862;19.460;2022-11-06T00:18:15;31.10;;;10.77;;
18738;SDS011;9498;51.862;19.460;2022-11-06T00:20:42;32.07;;;10.80;;
18738;SDS011;9498;51.862;19.460;2022-11-06T00:23:10;27.83;;;10.20;;
18738;SDS011;9498;51.862;19.460;2022-11-06T00:25:38;24.53;;;9.53;;
18738;SDS011;9498;51.862;19.460;2022-11-06T00:28:06;31.17;;;11.13;;
18738;SDS011;9498;51.862;19.460;2022-11-06T00:30:33;32.13;;;12.85;;
18738;SDS011;9498;51.862;19.460;2022-11-06T00:33:01;27.57;;;10.80;;
18738;SDS011;9498;51.862;19.460;2022-11-06T00:35:29;36.00;;;11.03;;
18738;SDS011;9498;51.862;19.460;2022-11-06T00:37:56;31.27;;;10.87;;
18738;SDS011;9498;51.862;19.460;2022-11-06T00:40:23;31.87;;;10.13;;
18738;SDS011;9498;51.862;19.460;2022-11-06T00:42:54;28.93;;;10.47;;
18738;SDS011;9498;51.862;19.460;2022-11-06T00:45:21;23.43;;;8.87;;
18738;SDS011;9498;51.862;19.460;2022-11-06T00:47:49;32.60;;;10.30;;
18738;SDS011;9498;51.862;19.460;2022-11-06T00:50:17;25.70;;;10.23;;
18738;SDS011;9498;51.862;19.460;2022-11-06T00:52:45;27.43;;;10.20;;
18738;SDS011;9498;51.862;19.460;2022-11-06T00:55:12;31.13;;;10.27;;
18738;SDS011;9498;51.862;19.460;2022-11-06T00:57:39;29.10;;;10.00;;
18738;SDS011;9498;51.862;19.460;2022-11-06T01:00:07;28.63;;;12.53;;
18738;SDS011;9498;51.862;19.460;2022-11-06T01:02:35;34.53;;;13.30;;
18738;SDS011;9498;51.862;19.460;2022-11-06T01:05:03;37.20;;;14.93;;
18738;SDS011;9498;51.862;19.460;2022-11-06T01:07:32;38.42;;;14.80;;
18738;SDS011;9498;51.862;19.460;2022-11-06T01:09:59;33.03;;;14.30;;
18738;SDS011;9498;51.862;19.460;2022-11-06T01:12:26;40.47;;;15.50;;
18738;SDS011;9498;51.862;19.460;2022-11-06T01:14:53;40.87;;;15.40;;
18738;SDS011;9498;51.862;19.460;2022-11-06T01:17:21;39.27;;;15.17;;
18738;SDS011;9498;51.862;19.460;2022-11-06T01:19:48;45.97;;;17.40;;
18738;SDS011;9498;51.862;19.460;2022-11-06T01:22:15;38.97;;;15.67;;
18738;SDS011;9498;51.862;19.460;2022-11-06T01:24:44;37.07;;;15.27;;
18738;SDS011;9498;51.862;19.460;2022-11-06T01:27:11;32.87;;;14.30;;
18738;SDS011;9498;51.862;19.460;2022-11-06T01:29:38;30.47;;;12.47;;
18738;SDS011;9498;51.862;19.460;2022-11-06T01:32:05;31.77;;;11.90;;
18738;SDS011;9498;51.862;19.460;2022-11-06T01:34:32;31.07;;;12.87;;
18738;SDS011;9498;51.862;19.460;2022-11-06T01:37:00;32.17;;;13.07;;
18738;SDS011;9498;51.862;19.460;2022-11-06T01:39:27;29.10;;;12.53;;
18738;SDS011;9498;51.862;19.460;2022-11-06T01:41:56;30.88;;;14.75;;
18738;SDS011;9498;51.862;19.460;2022-11-06T01:47:32;35.73;;;14.00;;
18738;SDS011;9498;51.862;19.460;2022-11-06T01:50:00;25.83;;;11.67;;
18738;SDS011;9498;51.862;19.460;2022-11-06T01:52:28;36.40;;;13.23;;
18738;SDS011;9498;51.862;19.460;2022-11-06T01:54:58;30.23;;;12.03;;
18738;SDS011;9498;51.862;19.460;2022-11-06T01:57:30;32.63;;;12.77;;
18738;SDS011;9498;51.862;19.460;2022-11-06T01:59:57;26.67;;;11.13;;
18738;SDS011;9498;51.862;19.460;2022-11-06T02:02:24;32.40;;;11.90;;
18738;SDS011;9498;51.862;19.460;2022-11-06T02:04:51;28.73;;;11.17;;
18738;SDS011;9498;51.862;19.460;2022-11-06T02:07:19;30.53;;;10.77;;
18738;SDS011;9498;51.862;19.460;2022-11-06T02:09:46;21.93;;;10.40;;
18738;SDS011;9498;51.862;19.460;2022-11-06T02:12:16;25.70;;;11.67;;
18738;SDS011;9498;51.862;19.460;2022-11-06T02:14:49;27.73;;;11.43;;
18738;SDS011;9498;51.862;19.460;2022-11-06T02:17:21;23.77;;;10.67;;
18738;SDS011;9498;51.862;19.460;2022-11-06T02:19:54;31.13;;;11.00;;
18738;SDS011;9498;51.862;19.460;2022-11-06T02:22:27;35.67;;;12.43;;
18738;SDS011;9498;51.862;19.460;2022-11-06T02:25:09;33.70;;;11.50;;
18738;SDS011;9498;51.862;19.460;2022-11-06T02:27:40;29.87;;;11.80;;
18738;SDS011;9498;51.862;19.460;2022-11-06T02:30:09;28.13;;;11.43;;
18738;SDS011;9498;51.862;19.460;2022-11-06T02:32:38;30.63;;;11.77;;
18738;SDS011;9498;51.862;19.460;2022-11-06T02:35:10;33.73;;;12.77;;
18738;SDS011;9498;51.862;19.460;2022-11-06T02:37:39;24.37;;;11.33;;
18738;SDS011;9498;51.862;19.460;2022-11-06T02:40:07;31.57;;;10.73;;
18738;SDS011;9498;51.862;19.460;2022-11-06T02:42:36;24.37;;;10.57;;
18738;SDS011;9498;51.862;19.460;2022-11-06T02:45:06;23.77;;;10.10;;
18738;SDS011;9498;51.862;19.460;2022-11-06T02:47:33;25.88;;;10.00;;
18738;SDS011;9498;51.862;19.460;2022-11-06T02:50:03;22.20;;;9.40;;
18738;SDS011;9498;51.862;19.460;2022-11-06T02:52:32;24.47;;;10.23;;
18738;SDS011;9498;51.862;19.460;2022-11-06T02:55:01;33.00;;;10.43;;
18738;SDS011;9498;51.862;19.460;2022-11-06T02:57:30;21.90;;;9.27;;
18738;SDS011;9498;51.862;19.460;2022-11-06T03:00:01;26.67;;;9.70;;
18738;SDS011;9498;51.862;19.460;2022-11-06T03:02:32;20.43;;;9.33;;
18738;SDS011;9498;51.862;19.460;2022-11-06T03:05:02;20.27;;;9.10;;
18738;SDS011;9498;51.862;19.460;2022-11-06T03:07:31;26.00;;;9.37;;
18738;SDS011;9498;51.862;19.460;2022-11-06T03:09:59;30.00;;;9.33;;
18738;SDS011;9498;51.862;19.460;2022-11-06T03:12:27;30.63;;;10.27;;
18738;SDS011;9498;51.862;19.460;2022-11-06T03:14:56;33.93;;;9.77;;
18738;SDS011;9498;51.862;19.460;2022-11-06T03:17:28;24.10;;;9.53;;
18738;SDS011;9498;51.862;19.460;2022-11-06T03:19:59;36.47;;;12.23;;
18738;SDS011;9498;51.862;19.460;2022-11-06T03:22:30;31.20;;;11.07;;
18738;SDS011;9498;51.862;19.460;2022-11-06T03:24:59;29.37;;;11.60;;
18738;SDS011;9498;51.862;19.460;2022-11-06T03:27:31;39.33;;;12.57;;
18738;SDS011;9498;51.862;19.460;2022-11-06T03:29:59;39.30;;;12.43;;
18738;SDS011;9498;51.862;19.460;2022-11-06T03:32:28;27.97;;;10.97;;
18738;SDS011;9498;51.862;19.460;2022-11-06T03:34:58;31.67;;;11.13;;
18738;SDS011;9498;51.862;19.460;2022-11-06T03:37:29;35.93;;;12.63;;
18738;SDS011;9498;51.862;19.460;2022-11-06T03:39:58;40.07;;;12.70;;
18738;SDS011;9498;51.862;19.460;2022-11-06T03:42:28;36.50;;;11.93;;
18738;SDS011;9498;51.862;19.460;2022-11-06T03:44:56;39.63;;;12.80;;
18738;SDS011;9498;51.862;19.460;2022-11-06T03:47:25;39.63;;;11.90;;
18738;SDS011;9498;51.862;19.460;2022-11-06T03:49:56;37.80;;;12.10;;
18738;SDS011;9498;51.862;19.460;2022-11-06T03:52:26;39.47;;;11.67;;
18738;SDS011;9498;51.862;19.460;2022-11-06T03:54:56;33.87;;;12.23;;
18738;SDS011;9498;51.862;19.460;2022-11-06T03:57:27;40.50;;;12.23;;
18738;SDS011;9498;51.862;19.460;2022-11-06T03:59:57;32.27;;;12.97;;
18738;SDS011;9498;51.862;19.460;2022-11-06T04:02:27;33.03;;;12.30;;
18738;SDS011;9498;51.862;19.460;2022-11-06T04:04:56;30.80;;;12.20;;
18738;SDS011;9498;51.862;19.460;2022-11-06T04:07:25;36.93;;;12.50;;
18738;SDS011;9498;51.862;19.460;2022-11-06T04:09:55;32.30;;;12.23;;
18738;SDS011;9498;51.862;19.460;2022-11-06T04:12:41;28.07;;;11.53;;
18738;SDS011;9498;51.862;19.460;2022-11-06T04:15:25;33.47;;;11.30;;
18738;SDS011;9498;51.862;19.460;2022-11-06T04:17:53;33.03;;;12.37;;
18738;SDS011;9498;51.862;19.460;2022-11-06T04:20:20;33.50;;;11.97;;
18738;SDS011;9498;51.862;19.460;2022-11-06T04:23:09;31.67;;;12.13;;
18738;SDS011;9498;51.862;19.460;2022-11-06T04:25:42;47.03;;;16.08;;
18738;SDS011;9498;51.862;19.460;2022-11-06T04:28:31;38.30;;;13.97;;
18738;SDS011;9498;51.862;19.460;2022-11-06T04:31:02;33.60;;;13.63;;
18738;SDS011;9498;51.862;19.460;2022-11-06T04:33:33;53.97;;;15.67;;
18738;SDS011;9498;51.862;19.460;2022-11-06T04:36:05;35.67;;;12.40;;
18738;SDS011;9498;51.862;19.460;2022-11-06T04:38:36;30.80;;;12.47;;
18738;SDS011;9498;51.862;19.460;2022-11-06T04:41:10;33.77;;;11.67;;
18738;SDS011;9498;51.862;19.460;2022-11-06T04:43:39;35.60;;;12.70;;
18738;SDS011;9498;51.862;19.460;2022-11-06T04:46:09;31.40;;;11.83;;
18738;SDS011;9498;51.862;19.460;2022-11-06T04:48:37;26.80;;;11.63;;
18738;SDS011;9498;51.862;19.460;2022-11-06T04:51:05;32.17;;;13.17;;
18738;SDS011;9498;51.862;19.460;2022-11-06T04:53:32;31.07;;;12.50;;
18738;SDS011;9498;51.862;19.460;2022-11-06T04:56:01;35.63;;;13.20;;
18738;SDS011;9498;51.862;19.460;2022-11-06T04:58:33;35.03;;;15.40;;
18738;SDS011;9498;51.862;19.460;2022-11-06T05:01:01;33.10;;;13.53;;
18738;SDS011;9498;51.862;19.460;2022-11-06T05:03:28;37.60;;;13.77;;
18738;SDS011;9498;51.862;19.460;2022-11-06T05:05:55;31.03;;;12.50;;
18738;SDS011;9498;51.862;19.460;2022-11-06T05:08:22;34.73;;;12.73;;
18738;SDS011;9498;51.862;19.460;2022-11-06T05:10:49;40.10;;;13.67;;
18738;SDS011;9498;51.862;19.460;2022-11-06T05:13:17;36.57;;;13.53;;
18738;SDS011;9498;51.862;19.460;2022-11-06T05:15:45;32.13;;;13.53;;
18738;SDS011;9498;51.862;19.460;2022-11-06T05:18:12;35.03;;;13.63;;
18738;SDS011;9498;51.862;19.460;2022-11-06T05:20:40;34.20;;;12.90;;
18738;SDS011;9498;51.862;19.460;2022-11-06T05:23:07;33.93;;;12.70;;
18738;SDS011;9498;51.862;19.460;2022-11-06T05:25:34;33.23;;;12.83;;
18738;SDS011;9498;51.862;19.460;2022-11-06T05:28:03;33.20;;;11.93;;
18738;SDS011;9498;51.862;19.460;2022-11-06T05:30:31;35.60;;;13.03;;
18738;SDS011;9498;51.862;19.460;2022-11-06T05:33:00;37.13;;;14.50;;
18738;SDS011;9498;51.862;19.460;2022-11-06T05:35:28;33.53;;;14.03;;
18738;SDS011;9498;51.862;19.460;2022-11-06T05:37:58;31.40;;;12.87;;
18738;SDS011;9498;51.862;19.460;2022-11-06T05:40:25;38.10;;;13.00;;
18738;SDS011;9498;51.862;19.460;2022-11-06T05:42:52;36.07;;;13.53;;
18738;SDS011;9498;51.862;19.460;2022-11-06T05:45:20;35.37;;;14.03;;
18738;SDS011;9498;51.862;19.460;2022-11-06T05:47:47;42.47;;;14.57;;
18738;SDS011;9498;51.862;19.460;2022-11-06T05:50:16;35.63;;;14.07;;
18738;SDS011;9498;51.862;19.460;2022-11-06T05:52:43;36.30;;;15.07;;
18738;SDS011;9498;51.862;19.460;2022-11-06T05:55:10;38.13;;;15.10;;
18738;SDS011;9498;51.862;19.460;2022-11-06T05:57:37;32.13;;;13.83;;
18738;SDS011;9498;51.862;19.460;2022-11-06T06:00:05;36.33;;;14.20;;
18738;SDS011;9498;51.862;19.460;2022-11-06T06:02:32;33.13;;;13.20;;
18738;SDS011;9498;51.862;19.460;2022-11-06T06:05:00;40.57;;;15.10;;
18738;SDS011;9498;51.862;19.460;2022-11-06T06:07:29;42.60;;;14.27;;
18738;SDS011;9498;51.862;19.460;2022-11-06T06:09:57;46.63;;;16.80;;
18738;SDS011;9498;51.862;19.460;2022-11-06T06:12:24;48.63;;;18.83;;
18738;SDS011;9498;51.862;19.460;2022-11-06T06:14:51;54.37;;;20.63;;
18738;SDS011;9498;51.862;19.460;2022-11-06T06:17:18;44.40;;;17.53;;
18738;SDS011;9498;51.862;19.460;2022-11-06T06:19:46;43.33;;;17.60;;
18738;SDS011;9498;51.862;19.460;2022-11-06T06:22:13;40.40;;;16.40;;
18738;SDS011;9498;51.862;19.460;2022-11-06T06:24:42;40.20;;;16.33;;
18738;SDS011;9498;51.862;19.460;2022-11-06T06:27:09;40.20;;;15.70;;
18738;SDS011;9498;51.862;19.460;2022-11-06T06:29:36;36.60;;;14.90;;
18738;SDS011;9498;51.862;19.460;2022-11-06T06:32:03;30.60;;;14.03;;
18738;SDS011;9498;51.862;19.460;2022-11-06T06:34:31;34.97;;;15.43;;
18738;SDS011;9498;51.862;19.460;2022-11-06T06:36:59;40.40;;;15.83;;
18738;SDS011;9498;51.862;19.460;2022-11-06T06:39:26;43.93;;;17.30;;
18738;SDS011;9498;51.862;19.460;2022-11-06T06:41:54;51.50;;;18.70;;
18738;SDS011;9498;51.862;19.460;2022-11-06T06:44:22;48.87;;;18.23;;
18738;SDS011;9498;51.862;19.460;2022-11-06T06:46:50;50.03;;;18.07;;
18738;SDS011;9498;51.862;19.460;2022-11-06T06:49:17;51.13;;;18.20;;
18738;SDS011;9498;51.862;19.460;2022-11-06T06:51:46;53.37;;;20.40;;
18738;SDS011;9498;51.862;19.460;2022-11-06T06:54:13;55.30;;;21.30;;
18738;SDS011;9498;51.862;19.460;2022-11-06T06:56:40;49.27;;;18.67;;
18738;SDS011;9498;51.862;19.460;2022-11-06T06:59:09;48.67;;;20.37;;
18738;SDS011;9498;51.862;19.460;2022-11-06T07:01:36;50.63;;;18.97;;
18738;SDS011;9498;51.862;19.460;2022-11-06T07:04:04;51.00;;;20.17;;
18738;SDS011;9498;51.862;19.460;2022-11-06T07:06:31;47.13;;;20.03;;
18738;SDS011;9498;51.862;19.460;2022-11-06T07:08:58;47.77;;;19.53;;
18738;SDS011;9498;51.862;19.460;2022-11-06T07:11:25;45.70;;;18.20;;
18738;SDS011;9498;51.862;19.460;2022-11-06T07:13:53;44.40;;;18.47;;
18738;SDS011;9498;51.862;19.460;2022-11-06T07:16:21;47.10;;;19.97;;
18738;SDS011;9498;51.862;19.460;2022-11-06T07:18:49;46.80;;;18.07;;
18738;SDS011;9498;51.862;19.460;2022-11-06T07:21:16;44.33;;;19.07;;
18738;SDS011;9498;51.862;19.460;2022-11-06T07:23:43;44.40;;;19.33;;
18738;SDS011;9498;51.862;19.460;2022-11-06T07:26:11;46.40;;;19.77;;
18738;SDS011;9498;51.862;19.460;2022-11-06T07:28:38;49.72;;;22.85;;
18738;SDS011;9498;51.862;19.460;2022-11-06T07:31:06;49.13;;;20.67;;
18738;SDS011;9498;51.862;19.460;2022-11-06T07:33:35;49.23;;;20.73;;
18738;SDS011;9498;51.862;19.460;2022-11-06T07:36:02;46.03;;;21.93;;
18738;SDS011;9498;51.862;19.460;2022-11-06T07:38:31;50.07;;;22.07;;
18738;SDS011;9498;51.862;19.460;2022-11-06T07:41:00;51.50;;;22.80;;
18738;SDS011;9498;51.862;19.460;2022-11-06T07:43:27;56.07;;;24.20;;
18738;SDS011;9498;51.862;19.460;2022-11-06T07:45:57;65.10;;;26.37;;
18738;SDS011;9498;51.862;19.460;2022-11-06T07:48:24;74.22;;;32.72;;
18738;SDS011;9498;51.862;19.460;2022-11-06T07:50:52;63.97;;;27.03;;
18738;SDS011;9498;51.862;19.460;2022-11-06T07:53:20;71.57;;;29.43;;
18738;SDS011;9498;51.862;19.460;2022-11-06T07:55:47;66.63;;;26.90;;
18738;SDS011;9498;51.862;19.460;2022-11-06T07:58:14;64.57;;;27.50;;
18738;SDS011;9498;51.862;19.460;2022-11-06T08:00:44;70.07;;;29.23;;
18738;SDS011;9498;51.862;19.460;2022-11-06T08:03:12;82.03;;;37.17;;
18738;SDS011;9498;51.862;19.460;2022-11-06T08:05:39;65.53;;;27.87;;
18738;SDS011;9498;51.862;19.460;2022-11-06T08:08:08;67.30;;;28.17;;
18738;SDS011;9498;51.862;19.460;2022-11-06T08:10:35;59.57;;;26.37;;
18738;SDS011;9498;51.862;19.460;2022-11-06T08:13:04;58.47;;;26.03;;
18738;SDS011;9498;51.862;19.460;2022-11-06T08:15:32;64.90;;;27.57;;
18738;SDS011;9498;51.862;19.460;2022-11-06T08:17:59;59.20;;;26.10;;
18738;SDS011;9498;51.862;19.460;2022-11-06T08:20:26;63.90;;;26.20;;
18738;SDS011;9498;51.862;19.460;2022-11-06T08:22:56;62.27;;;26.33;;
18738;SDS011;9498;51.862;19.460;2022-11-06T08:25:25;69.73;;;26.07;;
18738;SDS011;9498;51.862;19.460;2022-11-06T08:27:53;63.70;;;25.70;;
18738;SDS011;9498;51.862;19.460;2022-11-06T08:30:20;65.37;;;26.27;;
18738;SDS011;9498;51.862;19.460;2022-11-06T08:32:48;65.53;;;27.70;;
18738;SDS011;9498;51.862;19.460;2022-11-06T08:35:15;63.90;;;26.93;;
18738;SDS011;9498;51.862;19.460;2022-11-06T08:37:42;68.47;;;27.70;;
18738;SDS011;9498;51.862;19.460;2022-11-06T08:40:10;72.80;;;27.77;;
18738;SDS011;9498;51.862;19.460;2022-11-06T08:42:39;59.43;;;25.80;;
18738;SDS011;9498;51.862;19.460;2022-11-06T08:45:06;76.57;;;29.47;;
18738;SDS011;9498;51.862;19.460;2022-11-06T08:47:34;72.30;;;27.77;;
18738;SDS011;9498;51.862;19.460;2022-11-06T08:50:01;69.47;;;28.40;;
18738;SDS011;9498;51.862;19.460;2022-11-06T08:52:28;72.93;;;28.60;;
18738;SDS011;9498;51.862;19.460;2022-11-06T08:54:55;72.30;;;26.43;;
18738;SDS011;9498;51.862;19.460;2022-11-06T08:57:23;74.67;;;27.63;;
18738;SDS011;9498;51.862;19.460;2022-11-06T08:59:51;72.23;;;26.83;;
18738;SDS011;9498;51.862;19.460;2022-11-06T09:02:19;69.77;;;26.63;;
18738;SDS011;9498;51.862;19.460;2022-11-06T09:04:46;66.37;;;24.60;;
18738;SDS011;9498;51.862;19.460;2022-11-06T09:07:14;48.10;;;19.37;;
18738;SDS011;9498;51.862;19.460;2022-11-06T09:09:41;51.87;;;17.30;;
18738;SDS011;9498;51.862;19.460;2022-11-06T09:12:08;41.57;;;15.73;;
18738;SDS011;9498;51.862;19.460;2022-11-06T09:14:36;42.63;;;16.30;;
18738;SDS011;9498;51.862;19.460;2022-11-06T09:17:05;50.43;;;16.37;;
18738;SDS011;9498;51.862;19.460;2022-11-06T09:19:32;42.50;;;16.07;;
18738;SDS011;9498;51.862;19.460;2022-11-06T09:21:59;48.83;;;16.93;;
18738;SDS011;9498;51.862;19.460;2022-11-06T09:24:27;45.80;;;15.87;;
18738;SDS011;9498;51.862;19.460;2022-11-06T09:26:55;43.87;;;14.30;;
18738;SDS011;9498;51.862;19.460;2022-11-06T09:29:22;34.07;;;12.50;;
18738;SDS011;9498;51.862;19.460;2022-11-06T09:31:49;33.30;;;13.20;;
18738;SDS011;9498;51.862;19.460;2022-11-06T09:34:19;37.00;;;11.90;;
18738;SDS011;9498;51.862;19.460;2022-11-06T09:36:47;33.93;;;11.93;;
18738;SDS011;9498;51.862;19.460;2022-11-06T09:39:14;24.37;;;9.47;;
18738;SDS011;9498;51.862;19.460;2022-11-06T09:41:43;29.90;;;10.40;;
18738;SDS011;9498;51.862;19.460;2022-11-06T09:44:18;28.60;;;11.30;;
18738;SDS011;9498;51.862;19.460;2022-11-06T09:46:48;35.37;;;10.73;;
18738;SDS011;9498;51.862;19.460;2022-11-06T09:49:17;21.23;;;9.60;;
18738;SDS011;9498;51.862;19.460;2022-11-06T09:51:49;32.17;;;9.63;;
18738;SDS011;9498;51.862;19.460;2022-11-06T09:54:18;31.77;;;9.07;;
18738;SDS011;9498;51.862;19.460;2022-11-06T09:56:47;18.97;;;6.43;;
18738;SDS011;9498;51.862;19.460;2022-11-06T09:59:17;18.60;;;5.83;;
18738;SDS011;9498;51.862;19.460;2022-11-06T10:01:45;15.33;;;5.40;;
18738;SDS011;9498;51.862;19.460;2022-11-06T10:04:18;11.87;;;4.43;;
18738;SDS011;9498;51.862;19.460;2022-11-06T10:06:48;14.47;;;4.00;;
18738;SDS011;9498;51.862;19.460;2022-11-06T10:09:15;10.77;;;3.83;;
18738;SDS011;9498;51.862;19.460;2022-11-06T10:11:48;12.80;;;4.17;;
18738;SDS011;9498;51.862;19.460;2022-11-06T10:14:19;17.90;;;4.40;;
18738;SDS011;9498;51.862;19.460;2022-11-06T10:16:48;17.63;;;4.30;;
18738;SDS011;9498;51.862;19.460;2022-11-06T10:19:23;17.10;;;4.20;;
18738;SDS011;9498;51.862;19.460;2022-11-06T10:21:53;17.27;;;5.27;;
18738;SDS011;9498;51.862;19.460;2022-11-06T10:24:26;13.23;;;4.60;;
18738;SDS011;9498;51.862;19.460;2022-11-06T10:26:57;16.80;;;4.10;;
18738;SDS011;9498;51.862;19.460;2022-11-06T10:29:31;11.60;;;4.67;;
18738;SDS011;9498;51.862;19.460;2022-11-06T10:32:05;15.10;;;4.50;;
18738;SDS011;9498;51.862;19.460;2022-11-06T10:34:36;12.20;;;3.80;;
18738;SDS011;9498;51.862;19.460;2022-11-06T10:37:09;10.00;;;3.97;;
18738;SDS011;9498;51.862;19.460;2022-11-06T10:39:38;15.33;;;4.10;;
18738;SDS011;9498;51.862;19.460;2022-11-06T10:42:09;12.30;;;4.60;;
18738;SDS011;9498;51.862;19.460;2022-11-06T10:44:38;11.77;;;4.17;;
18738;SDS011;9498;51.862;19.460;2022-11-06T10:47:09;11.43;;;4.50;;
18738;SDS011;9498;51.862;19.460;2022-11-06T10:49:40;13.00;;;4.27;;
18738;SDS011;9498;51.862;19.460;2022-11-06T10:52:15;19.03;;;5.20;;
18738;SDS011;9498;51.862;19.460;2022-11-06T10:54:49;15.43;;;4.57;;
18738;SDS011;9498;51.862;19.460;2022-11-06T10:57:23;10.50;;;4.10;;
18738;SDS011;9498;51.862;19.460;2022-11-06T10:59:52;9.13;;;4.10;;
18738;SDS011;9498;51.862;19.460;2022-11-06T11:02:25;15.30;;;3.70;;
18738;SDS011;9498;51.862;19.460;2022-11-06T11:04:53;12.77;;;3.80;;
18738;SDS011;9498;51.862;19.460;2022-11-06T11:07:22;11.80;;;3.53;;
18738;SDS011;9498;51.862;19.460;2022-11-06T11:09:49;10.37;;;3.10;;
18738;SDS011;9498;51.862;19.460;2022-11-06T11:12:20;13.77;;;3.47;;
18738;SDS011;9498;51.862;19.460;2022-11-06T11:17:36;9.63;;;2.47;;
18738;SDS011;9498;51.862;19.460;2022-11-06T11:20:09;9.50;;;2.50;;
18738;SDS011;9498;51.862;19.460;2022-11-06T11:23:04;10.13;;;3.20;;
18738;SDS011;9498;51.862;19.460;2022-11-06T11:25:31;7.70;;;2.63;;
18738;SDS011;9498;51.862;19.460;2022-11-06T11:27:59;11.40;;;2.80;;
18738;SDS011;9498;51.862;19.460;2022-11-06T11:30:26;13.43;;;3.13;;
18738;SDS011;9498;51.862;19.460;2022-11-06T11:32:54;9.33;;;3.27;;
18738;SDS011;9498;51.862;19.460;2022-11-06T11:35:24;11.53;;;4.00;;
18738;SDS011;9498;51.862;19.460;2022-11-06T11:37:51;10.73;;;3.53;;
18738;SDS011;9498;51.862;19.460;2022-11-06T11:40:31;14.63;;;4.20;;
18738;SDS011;9498;51.862;19.460;2022-11-06T11:43:08;9.73;;;4.37;;
18738;SDS011;9498;51.862;19.460;2022-11-06T11:45:41;11.43;;;4.43;;
18738;SDS011;9498;51.862;19.460;2022-11-06T11:48:11;13.50;;;4.37;;
18738;SDS011;9498;51.862;19.460;2022-11-06T11:50:38;19.20;;;4.63;;
18738;SDS011;9498;51.862;19.460;2022-11-06T11:53:09;13.43;;;4.80;;
18738;SDS011;9498;51.862;19.460;2022-11-06T11:55:39;9.90;;;3.67;;
18738;SDS011;9498;51.862;19.460;2022-11-06T11:58:16;16.20;;;4.33;;
18738;SDS011;9498;51.862;19.460;2022-11-06T12:00:48;11.30;;;4.23;;
18738;SDS011;9498;51.862;19.460;2022-11-06T12:03:17;10.53;;;3.67;;
18738;SDS011;9498;51.862;19.460;2022-11-06T12:05:45;8.40;;;2.80;;
18738;SDS011;9498;51.862;19.460;2022-11-06T12:08:13;7.57;;;2.20;;
18738;SDS011;9498;51.862;19.460;2022-11-06T12:10:49;9.57;;;2.30;;
18738;SDS011;9498;51.862;19.460;2022-11-06T12:13:16;6.93;;;2.50;;
18738;SDS011;9498;51.862;19.460;2022-11-06T12:15:45;7.40;;;2.40;;
18738;SDS011;9498;51.862;19.460;2022-11-06T12:18:14;8.87;;;2.40;;
18738;SDS011;9498;51.862;19.460;2022-11-06T12:20:44;9.17;;;2.20;;
18738;SDS011;9498;51.862;19.460;2022-11-06T12:23:15;10.23;;;2.70;;
18738;SDS011;9498;51.862;19.460;2022-11-06T12:25:44;8.97;;;3.10;;
18738;SDS011;9498;51.862;19.460;2022-11-06T12:28:15;8.70;;;2.40;;
18738;SDS011;9498;51.862;19.460;2022-11-06T12:30:44;12.50;;;2.90;;
18738;SDS011;9498;51.862;19.460;2022-11-06T12:33:13;9.60;;;3.70;;
18738;SDS011;9498;51.862;19.460;2022-11-06T12:35:42;11.10;;;3.17;;
18738;SDS011;9498;51.862;19.460;2022-11-06T12:38:14;11.63;;;2.80;;
18738;SDS011;9498;51.862;19.460;2022-11-06T12:40:45;9.00;;;3.30;;
18738;SDS011;9498;51.862;19.460;2022-11-06T12:43:19;10.87;;;3.27;;
18738;SDS011;9498;51.862;19.460;2022-11-06T12:45:52;8.57;;;3.20;;
18738;SDS011;9498;51.862;19.460;2022-11-06T12:48:30;16.37;;;3.83;;
18738;SDS011;9498;51.862;19.460;2022-11-06T12:51:00;26.57;;;4.93;;
18738;SDS011;9498;51.862;19.460;2022-11-06T12:53:33;13.80;;;4.00;;
18738;SDS011;9498;51.862;19.460;2022-11-06T12:56:06;16.20;;;4.50;;
18738;SDS011;9498;51.862;19.460;2022-11-06T13:01:34;12.50;;;3.30;;
18738;SDS011;9498;51.862;19.460;2022-11-06T13:04:08;8.43;;;3.00;;
18738;SDS011;9498;51.862;19.460;2022-11-06T13:09:28;21.90;;;4.10;;
18738;SDS011;9498;51.862;19.460;2022-11-06T13:11:58;13.13;;;3.87;;
18738;SDS011;9498;51.862;19.460;2022-11-06T13:14:29;13.77;;;4.70;;
18738;SDS011;9498;51.862;19.460;2022-11-06T13:16:59;14.13;;;4.43;;
18738;SDS011;9498;51.862;19.460;2022-11-06T13:19:31;11.13;;;4.23;;
18738;SDS011;9498;51.862;19.460;2022-11-06T13:22:06;14.63;;;4.73;;
18738;SDS011;9498;51.862;19.460;2022-11-06T13:24:36;16.90;;;4.17;;
18738;SDS011;9498;51.862;19.460;2022-11-06T13:27:09;17.20;;;4.40;;
18738;SDS011;9498;51.862;19.460;2022-11-06T13:29:41;11.73;;;3.13;;
18738;SDS011;9498;51.862;19.460;2022-11-06T13:32:11;8.00;;;2.60;;
18738;SDS011;9498;51.862;19.460;2022-11-06T13:34:40;7.53;;;2.90;;
18738;SDS011;9498;51.862;19.460;2022-11-06T13:37:11;10.53;;;2.73;;
18738;SDS011;9498;51.862;19.460;2022-11-06T13:39:40;11.57;;;3.10;;
18738;SDS011;9498;51.862;19.460;2022-11-06T13:42:12;8.83;;;3.63;;
18738;SDS011;9498;51.862;19.460;2022-11-06T13:44:40;9.53;;;3.10;;
18738;SDS011;9498;51.862;19.460;2022-11-06T13:47:08;13.33;;;3.33;;
18738;SDS011;9498;51.862;19.460;2022-11-06T13:49:39;7.07;;;3.00;;
18738;SDS011;9498;51.862;19.460;2022-11-06T13:52:11;10.83;;;3.10;;
18738;SDS011;9498;51.862;19.460;2022-11-06T13:54:46;9.50;;;2.97;;
18738;SDS011;9498;51.862;19.460;2022-11-06T14:00:00;14.00;;;2.80;;
18738;SDS011;9498;51.862;19.460;2022-11-06T14:02:52;6.77;;;2.20;;
18738;SDS011;9498;51.862;19.460;2022-11-06T14:05:41;13.17;;;3.07;;
18738;SDS011;9498;51.862;19.460;2022-11-06T14:08:12;12.17;;;2.80;;
18738;SDS011;9498;51.862;19.460;2022-11-06T14:10:46;6.97;;;2.47;;
18738;SDS011;9498;51.862;19.460;2022-11-06T14:13:14;7.47;;;2.30;;
18738;SDS011;9498;51.862;19.460;2022-11-06T14:15:42;8.57;;;2.27;;
18738;SDS011;9498;51.862;19.460;2022-11-06T14:18:12;13.03;;;3.73;;
18738;SDS011;9498;51.862;19.460;2022-11-06T14:20:42;10.53;;;2.70;;
18738;SDS011;9498;51.862;19.460;2022-11-06T14:26:11;8.23;;;2.70;;
18738;SDS011;9498;51.862;19.460;2022-11-06T14:28:39;10.57;;;2.70;;
18738;SDS011;9498;51.862;19.460;2022-11-06T14:31:07;12.00;;;3.17;;
18738;SDS011;9498;51.862;19.460;2022-11-06T14:36:27;16.97;;;3.23;;
18738;SDS011;9498;51.862;19.460;2022-11-06T14:38:54;11.40;;;2.53;;
18738;SDS011;9498;51.862;19.460;2022-11-06T14:44:16;8.53;;;2.53;;
18738;SDS011;9498;51.862;19.460;2022-11-06T14:46:47;8.27;;;3.00;;
18738;SDS011;9498;51.862;19.460;2022-11-06T14:49:19;14.77;;;4.03;;
18738;SDS011;9498;51.862;19.460;2022-11-06T14:51:56;15.73;;;4.13;;
18738;SDS011;9498;51.862;19.460;2022-11-06T14:54:25;10.77;;;2.87;;
18738;SDS011;9498;51.862;19.460;2022-11-06T14:56:52;7.97;;;2.80;;
18738;SDS011;9498;51.862;19.460;2022-11-06T14:59:20;9.30;;;2.73;;
18738;SDS011;9498;51.862;19.460;2022-11-06T15:01:53;12.17;;;3.47;;
18738;SDS011;9498;51.862;19.460;2022-11-06T15:04:21;15.13;;;3.87;;